createdAt,value
2022-10-17T00:00:00.624Z,994.2961
2022-10-17T00:01:00.769Z,994.44
2022-10-17T00:02:00.908Z,994.2242
2022-10-17T00:03:01.069Z,994.2466
2022-10-17T00:04:01.196Z,994.3977
2022-10-17T00:05:00.345Z,994.3907
2022-10-17T00:06:00.498Z,994.2466
2022-10-17T00:07:00.644Z,994.391
2022-10-17T00:08:00.790Z,994.2181
2022-10-17T00:09:00.933Z,994.2975
2022-10-17T00:10:01.073Z,994.2617
2022-10-17T00:11:01.250Z,994.19
2022-10-17T00:12:00.368Z,994.2117
2022-10-17T00:13:00.514Z,994.2399
2022-10-17T00:14:00.665Z,994.3334
2022-10-17T00:15:00.817Z,994.1823
2022-10-17T00:16:00.972Z,994.2617
2022-10-17T00:17:01.112Z,994.2469
2022-10-17T00:18:00.273Z,994.2399
2022-10-17T00:19:00.408Z,994.1672
2022-10-17T00:20:00.553Z,994.2389
2022-10-17T00:21:00.702Z,994.34
2022-10-17T00:22:00.871Z,994.2825
2022-10-17T00:23:01.017Z,994.1823
2022-10-17T00:24:01.153Z,994.2687
2022-10-17T00:25:00.295Z,994.4128
2022-10-17T00:26:00.432Z,994.3334
2022-10-17T00:27:00.641Z,994.2758
2022-10-17T00:28:00.739Z,994.3263
2022-10-17T00:29:00.979Z,994.2834
2022-10-17T00:30:01.074Z,994.334
2022-10-17T00:31:01.174Z,994.204
2022-10-17T00:32:00.342Z,994.3052
2022-10-17T00:33:00.472Z,994.5069
2022-10-17T00:34:00.617Z,994.5069
2022-10-17T00:35:00.770Z,994.3836
2022-10-17T00:36:00.921Z,994.2181
2022-10-17T00:37:01.090Z,994.1823
2022-10-17T00:38:01.208Z,994.5786
2022-10-17T00:39:00.356Z,994.471
2022-10-17T00:40:00.498Z,994.471
2022-10-17T00:41:00.660Z,994.2989
2022-10-17T00:42:00.810Z,994.2559
2022-10-17T00:43:00.951Z,994.1842
2022-10-17T00:44:01.104Z,994.2564
2022-10-17T00:45:01.249Z,994.3218
2022-10-17T00:46:00.390Z,994.4658
2022-10-17T00:47:00.567Z,994.3439
2022-10-17T00:48:00.700Z,994.2651
2022-10-17T00:49:00.849Z,994.2794
2022-10-17T00:51:01.141Z,994.4096
2022-10-17T00:52:00.283Z,994.3302
2022-10-17T00:53:00.431Z,994.4309
2022-10-17T00:54:00.581Z,994.4094
2022-10-17T00:55:00.733Z,994.2653
2022-10-17T00:56:00.892Z,994.3805
2022-10-17T00:57:01.017Z,994.3014
2022-10-17T00:58:01.148Z,994.3596
2022-10-17T00:59:00.370Z,994.3596
2022-10-17T01:00:00.448Z,994.4247
2022-10-17T01:01:00.687Z,994.3166
2022-10-17T01:02:00.749Z,994.2955
2022-10-17T01:03:00.895Z,994.4394
2022-10-17T01:04:01.049Z,994.4899
2022-10-17T01:05:01.187Z,994.3032
2022-10-17T01:06:00.364Z,994.4113
2022-10-17T01:07:00.514Z,994.4904
2022-10-17T01:08:00.659Z,994.4765
2022-10-17T01:09:00.804Z,994.3901
2022-10-17T01:10:00.945Z,994.3978
2022-10-17T01:11:01.116Z,994.4123
2022-10-17T01:12:01.245Z,994.592
2022-10-17T01:13:00.391Z,994.5992
2022-10-17T01:14:00.544Z,994.5274
2022-10-17T01:15:00.672Z,994.4699
2022-10-17T01:16:00.838Z,994.4342
2022-10-17T01:17:00.970Z,994.6648
2022-10-17T01:18:01.121Z,994.6648
2022-10-17T01:19:00.263Z,994.6648
2022-10-17T01:20:00.409Z,994.6648
2022-10-17T01:21:00.581Z,994.4922
2022-10-17T01:22:00.732Z,994.7623
2022-10-17T01:23:00.850Z,994.6648
2022-10-17T01:24:01.009Z,994.4922
2022-10-17T01:25:01.152Z,994.5144
2022-10-17T01:26:00.292Z,994.6648
2022-10-17T01:27:00.473Z,994.6648
2022-10-17T01:28:00.593Z,994.4347
2022-10-17T01:29:00.730Z,994.6648
2022-10-17T01:30:00.891Z,994.6295
2022-10-17T01:31:01.021Z,994.6223
2022-10-17T01:32:01.182Z,994.5148
2022-10-17T01:33:00.312Z,994.5148
2022-10-17T01:34:00.467Z,994.364
2022-10-17T01:35:00.602Z,994.4654
2022-10-17T01:36:04.749Z,994.4942
2022-10-17T01:37:00.893Z,994.3721
2022-10-17T01:38:01.054Z,994.4079
2022-10-17T01:39:01.205Z,994.4292
2022-10-17T01:40:00.341Z,994.2711
2022-10-17T01:41:00.477Z,994.3363
2022-10-17T01:42:00.611Z,994.4876
2022-10-17T01:43:00.750Z,994.4876
2022-10-17T01:44:00.928Z,994.5664
2022-10-17T01:45:01.060Z,994.4156
2022-10-17T01:46:01.194Z,994.452
2022-10-17T01:47:00.354Z,994.4091
2022-10-17T01:48:00.508Z,994.4595
2022-10-17T01:49:00.662Z,994.4735
2022-10-17T01:50:00.793Z,994.4952
2022-10-17T01:51:00.939Z,994.3374
2022-10-17T01:52:01.098Z,994.3087
2022-10-17T01:53:01.241Z,994.3018
2022-10-17T01:54:00.420Z,994.266
2022-10-17T01:55:00.557Z,994.2448
2022-10-17T01:56:00.714Z,994.3099
2022-10-17T01:57:00.867Z,994.4247
2022-10-17T01:58:01.001Z,994.4322
2022-10-17T01:59:01.168Z,994.1309
2022-10-17T02:00:00.298Z,994.1884
2022-10-17T02:01:00.509Z,994.2171
2022-10-17T02:02:00.601Z,994.1596
2022-10-17T02:03:00.743Z,994.3033
2022-10-17T02:04:00.903Z,994.1596
2022-10-17T02:06:01.180Z,994.0804
2022-10-17T02:07:00.313Z,994.1021
2022-10-17T02:08:00.488Z,994.0447
2022-10-17T02:09:00.611Z,994.0447
2022-10-17T02:10:00.753Z,994.0585
2022-10-17T02:11:00.898Z,994.0517
2022-10-17T02:12:01.062Z,993.9655
2022-10-17T02:13:01.231Z,994.1379
2022-10-17T02:14:00.413Z,993.9872
2022-10-17T02:15:00.497Z,994.0447
2022-10-17T02:16:00.649Z,994.1021
2022-10-17T02:17:00.793Z,994.0669
2022-10-17T02:18:00.949Z,993.9374
2022-10-17T02:19:01.099Z,994.0094
2022-10-17T02:20:01.244Z,994.0311
2022-10-17T02:21:00.386Z,993.9449
2022-10-17T02:22:00.527Z,994.0816
2022-10-17T02:23:00.697Z,994.1379
2022-10-17T02:24:00.835Z,993.9584
2022-10-17T02:25:00.978Z,994.1021
2022-10-17T02:26:01.121Z,993.9949
2022-10-17T02:27:00.269Z,994.0447
2022-10-17T02:28:00.432Z,994.0447
2022-10-17T02:29:00.610Z,994.1379
2022-10-17T02:30:00.714Z,994.2746
2022-10-17T02:31:00.864Z,994.1379
2022-10-17T02:32:01.030Z,994.1667
2022-10-17T02:33:01.192Z,994.3321
2022-10-17T02:34:00.317Z,994.3033
2022-10-17T02:35:00.458Z,994.311
2022-10-17T02:36:00.606Z,994.3972
2022-10-17T02:37:00.748Z,994.0816
2022-10-17T02:38:00.913Z,994.1536
2022-10-17T02:39:01.086Z,994.211
2022-10-17T02:40:01.197Z,994.3261
2022-10-17T02:41:00.349Z,994.2474
2022-10-17T02:42:00.495Z,994.1901
2022-10-17T02:43:00.647Z,994.3694
2022-10-17T02:44:02.486Z,994.2617
2022-10-17T02:45:00.967Z,994.1542
2022-10-17T02:46:01.101Z,994.3554
2022-10-17T02:47:01.245Z,994.1185
2022-10-17T02:48:00.390Z,994.2551
2022-10-17T02:49:00.565Z,994.2264
2022-10-17T02:50:00.696Z,994.3196
2022-10-17T02:51:00.855Z,994.2334
2022-10-17T02:52:01.009Z,994.1332
2022-10-17T02:53:01.154Z,994.363
2022-10-17T02:54:00.309Z,994.2698
2022-10-17T02:55:00.470Z,994.292
2022-10-17T02:56:00.608Z,994.5004
2022-10-17T02:57:00.741Z,994.4003
2022-10-17T02:58:00.899Z,994.4075
2022-10-17T02:59:01.047Z,994.4003
2022-10-17T03:00:01.210Z,994.336
2022-10-17T03:01:00.382Z,994.3505
2022-10-17T03:02:00.474Z,994.3652
2022-10-17T03:03:00.629Z,994.2503
2022-10-17T03:04:00.781Z,994.3506
2022-10-17T03:05:00.945Z,994.3294
2022-10-17T03:06:01.075Z,994.1858
2022-10-17T03:07:01.220Z,994.3294
2022-10-17T03:08:00.371Z,994.2937
2022-10-17T03:09:00.530Z,994.2075
2022-10-17T03:10:00.698Z,994.2292
2022-10-17T03:11:00.827Z,994.265
2022-10-17T03:12:00.976Z,994.2867
2022-10-17T03:13:01.140Z,994.3084
2022-10-17T03:14:00.284Z,994.2005
2022-10-17T03:15:00.435Z,994.222
2022-10-17T03:16:00.572Z,994.3658
2022-10-17T03:17:00.719Z,994.1935
2022-10-17T03:18:00.884Z,994.4232
2022-10-17T03:19:01.019Z,994.3013
2022-10-17T03:20:01.179Z,994.2726
2022-10-17T03:21:00.351Z,994.3875
2022-10-17T03:22:00.467Z,994.2726
2022-10-17T03:23:00.621Z,994.33
2022-10-17T03:24:00.756Z,994.5023
2022-10-17T03:25:00.915Z,994.33
2022-10-17T03:26:01.080Z,994.531
2022-10-17T03:27:01.202Z,994.4096
2022-10-17T03:28:00.353Z,994.3452
2022-10-17T03:29:00.550Z,994.4096
2022-10-17T03:30:00.652Z,994.4096
2022-10-17T03:31:00.809Z,994.4246
2022-10-17T03:32:00.962Z,994.4105
2022-10-17T03:33:01.090Z,994.3678
2022-10-17T03:34:01.232Z,994.5541
2022-10-17T03:35:00.389Z,994.4826
2022-10-17T03:36:00.545Z,994.3753
2022-10-17T03:37:00.698Z,994.4756
2022-10-17T03:38:00.828Z,994.5476
2022-10-17T03:39:00.979Z,994.3899
2022-10-17T03:40:01.122Z,994.5043
2022-10-17T03:41:00.252Z,994.4977
2022-10-17T03:42:00.416Z,994.4116
2022-10-17T03:43:00.550Z,994.4403
2022-10-17T03:44:00.697Z,994.3759
2022-10-17T03:45:00.846Z,994.5838
2022-10-17T03:46:00.990Z,994.5264
2022-10-17T03:47:01.159Z,994.4766
2022-10-17T03:48:00.273Z,994.455
2022-10-17T03:49:00.417Z,994.6629
2022-10-17T03:50:00.558Z,994.5914
2022-10-17T03:51:00.719Z,994.6201
2022-10-17T03:52:00.884Z,994.5128
2022-10-17T03:53:01.012Z,994.6781
2022-10-17T03:54:01.154Z,994.4989
2022-10-17T03:55:00.310Z,994.6059
2022-10-17T03:56:00.454Z,994.5989
2022-10-17T03:57:00.616Z,994.5053
2022-10-17T03:58:00.773Z,994.4615
2022-10-17T03:59:00.910Z,994.6185
2022-10-17T04:00:01.048Z,994.4464
2022-10-17T04:01:01.247Z,994.5968
2022-10-17T04:02:00.300Z,994.5678
2022-10-17T04:03:00.468Z,994.5245
2022-10-17T04:04:00.605Z,994.5819
2022-10-17T04:05:00.745Z,994.4887
2022-10-17T04:06:00.899Z,994.4458
2022-10-17T04:07:01.051Z,994.4246
2022-10-17T04:08:03.993Z,994.6543
2022-10-17T04:09:00.353Z,994.468
2022-10-17T04:10:00.503Z,994.6543
2022-10-17T04:11:00.650Z,994.54
2022-10-17T04:12:00.798Z,994.4902
2022-10-17T04:13:00.976Z,994.5838
2022-10-17T04:14:01.088Z,994.5264
2022-10-17T04:15:01.251Z,994.7173
2022-10-17T04:16:00.390Z,994.6201
2022-10-17T04:17:00.535Z,994.5705
2022-10-17T04:18:00.761Z,994.5989
2022-10-17T04:19:00.826Z,994.4486
2022-10-17T04:20:00.990Z,994.6059
2022-10-17T04:21:01.170Z,994.6346
2022-10-17T04:22:00.278Z,994.6563
2022-10-17T04:23:00.444Z,994.585
2022-10-17T04:24:00.602Z,994.6711
2022-10-17T04:25:00.723Z,994.948
2022-10-17T04:26:00.865Z,994.6633
2022-10-17T04:27:01.022Z,994.6746
2022-10-17T04:28:01.152Z,994.8181
2022-10-17T04:29:00.329Z,994.6962
2022-10-17T04:30:00.453Z,994.732
2022-10-17T04:31:00.600Z,994.6816
2022-10-17T04:32:00.749Z,994.9329
2022-10-17T04:33:00.905Z,994.8971
2022-10-17T04:34:01.064Z,994.8185
2022-10-17T04:35:01.225Z,994.8397
2022-10-17T04:36:00.328Z,994.7179
2022-10-17T04:37:00.480Z,994.9329
2022-10-17T04:38:00.616Z,994.804
2022-10-17T04:39:00.823Z,994.7037
2022-10-17T04:40:00.945Z,994.948
2022-10-17T04:41:01.083Z,995.0628
2022-10-17T04:42:01.212Z,994.8337
2022-10-17T04:43:00.360Z,994.934
2022-10-17T04:44:00.498Z,995.0347
2022-10-17T04:45:00.661Z,994.8337
2022-10-17T04:46:00.822Z,994.8051
2022-10-17T04:47:00.950Z,994.9486
2022-10-17T04:48:01.094Z,994.8911
2022-10-17T04:49:01.252Z,995.0347
2022-10-17T04:50:00.401Z,995.0058
2022-10-17T04:51:00.571Z,995.1061
2022-10-17T04:52:00.691Z,995.1419
2022-10-17T04:53:00.837Z,995.0054
2022-10-17T04:54:00.988Z,994.9909
2022-10-17T04:55:01.135Z,995.1625
2022-10-17T04:56:00.307Z,995.1554
2022-10-17T04:57:00.431Z,995.1267
2022-10-17T04:58:00.581Z,995.1267
2022-10-17T04:59:00.726Z,995.1625
2022-10-17T05:00:00.896Z,995.1267
2022-10-17T05:01:01.129Z,995.091
2022-10-17T05:02:01.178Z,995.2133
2022-10-17T05:03:00.321Z,995.1776
2022-10-17T05:04:00.447Z,995.178
2022-10-17T05:05:00.610Z,995.2642
2022-10-17T05:06:00.769Z,995.1713
2022-10-17T05:07:00.895Z,995.1069
2022-10-17T05:08:01.035Z,995.2217
2022-10-17T05:09:01.190Z,994.964
2022-10-17T05:10:00.349Z,995.2504
2022-10-17T05:11:00.568Z,995.0359
2022-10-17T05:12:00.642Z,995.029
2022-10-17T05:13:00.797Z,995.1437
2022-10-17T05:14:00.953Z,995.0863
2022-10-17T05:15:01.105Z,995.0863
2022-10-17T05:16:01.273Z,995.2151
2022-10-17T05:17:00.403Z,995.2292
2022-10-17T05:18:00.566Z,995.1865
2022-10-17T05:19:00.717Z,995.2297
2022-10-17T05:20:00.862Z,995.0863
2022-10-17T05:21:01.037Z,995.1296
2022-10-17T05:22:01.172Z,995.1158
2022-10-17T05:23:00.313Z,995.0299
2022-10-17T05:24:00.476Z,995.1163
2022-10-17T05:25:00.609Z,995.1521
2022-10-17T05:26:00.762Z,995.2668
2022-10-17T05:27:00.928Z,995.1807
2022-10-17T05:28:01.047Z,995.3457
2022-10-17T05:29:01.257Z,995.2813
2022-10-17T05:30:00.338Z,995.224
2022-10-17T05:31:00.474Z,995.3598
2022-10-17T05:33:00.766Z,995.145
2022-10-17T05:34:00.920Z,995.3171
2022-10-17T05:35:01.071Z,995.3744
2022-10-17T05:36:01.215Z,995.2386
2022-10-17T05:37:00.382Z,995.3391
2022-10-17T05:38:00.508Z,995.2456
2022-10-17T05:39:00.656Z,995.303
2022-10-17T05:40:00.809Z,995.303
2022-10-17T05:41:00.960Z,995.1883
2022-10-17T05:42:01.128Z,995.2597
2022-10-17T05:43:01.254Z,995.3171
2022-10-17T05:44:03.167Z,995.3457
2022-10-17T05:45:00.549Z,995.3387
2022-10-17T05:46:00.699Z,995.3317
2022-10-17T05:47:00.868Z,995.2743
2022-10-17T05:48:01.001Z,995.4177
2022-10-17T05:49:01.157Z,995.1818
2022-10-17T05:50:00.300Z,995.3397
2022-10-17T05:51:00.448Z,995.5404
2022-10-17T05:52:00.610Z,995.3684
2022-10-17T05:53:00.749Z,995.3246
2022-10-17T05:54:00.898Z,995.3964
2022-10-17T05:55:01.037Z,995.4538
2022-10-17T05:56:01.208Z,995.2244
2022-10-17T05:57:00.372Z,995.3894
2022-10-17T05:58:00.515Z,995.418
2022-10-17T05:59:01.179Z,995.3246
2022-10-17T06:00:00.819Z,995.332
2022-10-17T06:01:00.983Z,995.1677
2022-10-17T06:02:01.171Z,995.1962
2022-10-17T06:03:00.253Z,995.3682
2022-10-17T06:04:00.412Z,995.2824
2022-10-17T06:05:00.551Z,995.5689
2022-10-17T06:06:00.771Z,995.4618
2022-10-17T06:07:00.847Z,995.5404
2022-10-17T06:08:02.043Z,995.3969
2022-10-17T06:09:01.139Z,995.3109
2022-10-17T06:10:00.299Z,995.6961
2022-10-17T06:11:00.430Z,995.3034
2022-10-17T06:12:00.581Z,995.332
2022-10-17T06:13:00.753Z,995.4538
2022-10-17T06:14:00.868Z,995.4966
2022-10-17T06:15:01.020Z,995.7318
2022-10-17T06:16:01.176Z,995.4466
2022-10-17T06:17:00.320Z,995.4966
2022-10-17T06:18:00.485Z,995.4251
2022-10-17T06:19:00.608Z,995.7747
2022-10-17T06:20:00.753Z,995.4754
2022-10-17T06:21:00.902Z,995.6961
2022-10-17T06:22:01.055Z,995.5398
2022-10-17T06:23:01.215Z,995.4538
2022-10-17T06:24:00.352Z,995.6454
2022-10-17T06:25:00.489Z,995.4966
2022-10-17T06:26:00.640Z,995.5324
2022-10-17T06:27:00.779Z,995.4891
2022-10-17T06:28:00.941Z,995.4318
2022-10-17T06:29:01.198Z,995.4891
2022-10-17T06:30:01.221Z,995.4963
2022-10-17T06:31:00.357Z,995.5677
2022-10-17T06:32:00.499Z,995.5032
2022-10-17T06:33:00.689Z,995.6018
2022-10-17T06:34:00.801Z,995.6089
2022-10-17T06:35:00.945Z,995.6085
2022-10-17T06:36:01.101Z,995.68
2022-10-17T06:37:01.246Z,995.6226
2022-10-17T06:38:00.415Z,995.608
2022-10-17T06:39:00.566Z,995.758
2022-10-17T06:40:00.731Z,995.7867
2022-10-17T06:41:00.843Z,995.8297
2022-10-17T06:42:01.003Z,995.6857
2022-10-17T06:43:01.142Z,995.8933
2022-10-17T06:44:00.287Z,995.6994
2022-10-17T06:45:00.455Z,995.7207
2022-10-17T06:46:00.601Z,995.8637
2022-10-17T06:47:00.728Z,995.7486
2022-10-17T06:48:00.882Z,995.6982
2022-10-17T06:49:01.031Z,995.6609
2022-10-17T06:50:01.172Z,995.8686
2022-10-17T06:51:00.341Z,995.6243
2022-10-17T06:52:00.475Z,995.7245
2022-10-17T06:53:00.612Z,995.8605
2022-10-17T06:54:00.754Z,995.8605
2022-10-17T06:55:00.897Z,995.7024
2022-10-17T06:56:01.050Z,995.7383
2022-10-17T06:57:01.214Z,995.7378
2022-10-17T06:58:00.350Z,995.8811
2022-10-17T06:59:00.488Z,995.7299
2022-10-17T07:00:00.649Z,995.7654
2022-10-17T07:01:01.189Z,995.8079
2022-10-17T07:02:00.950Z,995.9657
2022-10-17T07:03:01.075Z,995.9077
2022-10-17T07:04:01.226Z,995.8854
2022-10-17T07:05:00.371Z,996.0718
2022-10-17T07:06:00.519Z,996.0284
2022-10-17T07:07:00.673Z,995.9272
2022-10-17T07:08:00.838Z,995.898
2022-10-17T07:09:00.968Z,995.912
2022-10-17T07:10:01.134Z,996.113
2022-10-17T07:11:00.279Z,996.0551
2022-10-17T07:12:00.432Z,996.0258
2022-10-17T07:13:00.604Z,996.0538
2022-10-17T07:14:00.723Z,996.089
2022-10-17T07:15:00.874Z,996.0884
2022-10-17T07:16:01.017Z,996.0734
2022-10-17T07:17:01.156Z,996.0225
2022-10-17T07:18:00.318Z,996.0938
2022-10-17T07:19:00.454Z,996.1074
2022-10-17T07:20:00.633Z,996.0633
2022-10-17T07:21:00.743Z,995.9041
2022-10-17T07:22:00.903Z,996.1988
2022-10-17T07:23:01.065Z,995.9531
2022-10-17T07:24:01.221Z,996.1399
2022-10-17T07:25:00.343Z,995.9516
2022-10-17T07:26:00.501Z,996.0156
2022-10-17T07:27:00.629Z,996.0437
2022-10-17T07:28:00.790Z,996.014
2022-10-17T07:29:01.029Z,995.9844
2022-10-17T07:30:01.075Z,996.085
2022-10-17T07:31:01.237Z,996.0844
2022-10-17T07:32:00.378Z,996.2284
2022-10-17T07:33:00.524Z,996.3724
2022-10-17T07:34:00.660Z,996.0831
2022-10-17T07:35:00.795Z,996.0686
2022-10-17T07:36:00.939Z,996.1477
2022-10-17T07:37:01.075Z,996.1326
2022-10-17T07:38:01.229Z,996.1538
2022-10-17T07:39:00.385Z,995.9875
2022-10-17T07:40:00.507Z,996.1387
2022-10-17T07:41:00.659Z,995.972
2022-10-17T07:42:00.799Z,996.1737
2022-10-17T07:43:00.942Z,996.0358
2022-10-17T07:44:01.119Z,996.0494
2022-10-17T07:45:01.240Z,995.9983
2022-10-17T07:46:00.394Z,996.1498
2022-10-17T07:47:00.527Z,996.1565
2022-10-17T07:48:00.689Z,996.0692
2022-10-17T07:49:00.845Z,996.235
2022-10-17T07:50:00.976Z,995.9812
2022-10-17T07:51:01.142Z,996.0893
2022-10-17T07:52:00.271Z,996.2408
2022-10-17T07:53:00.422Z,996.175
2022-10-17T07:54:00.603Z,996.1965
2022-10-17T07:55:00.720Z,996.3699
2022-10-17T07:56:00.867Z,996.1742
2022-10-17T07:57:01.017Z,996.2393
2022-10-17T07:58:01.160Z,996.1012
2022-10-17T07:59:02.669Z,996.1947
2022-10-17T08:00:00.453Z,996.2237
2022-10-17T08:02:00.747Z,996.2234
2022-10-17T08:03:00.890Z,996.0566
2022-10-17T08:04:01.068Z,996.2083
2022-10-17T08:05:01.206Z,996.1138
2022-10-17T08:06:00.350Z,996.3092
2022-10-17T08:07:11.902Z,996.1714
2022-10-17T08:08:00.644Z,996.1055
2022-10-17T08:09:00.825Z,996.0764
2022-10-17T08:10:00.991Z,996.1269
2022-10-17T08:11:01.105Z,996.0904
2022-10-17T08:12:01.258Z,996.1914
2022-10-17T08:13:00.392Z,996.3867
2022-10-17T08:14:00.581Z,996.2702
2022-10-17T08:15:00.695Z,996.2119
2022-10-17T08:16:00.841Z,996.1387
2022-10-17T08:17:00.994Z,996.0583
2022-10-17T08:18:01.166Z,996.145
2022-10-17T08:19:00.344Z,996.1813
2022-10-17T08:20:00.442Z,996.2971
2022-10-17T08:21:00.595Z,996.2244
2022-10-17T08:22:00.742Z,996.0863
2022-10-17T08:23:00.897Z,996.1441
2022-10-17T08:24:01.063Z,996.1509
2022-10-17T08:25:01.210Z,996.2159
2022-10-17T08:26:00.363Z,996.2736
2022-10-17T08:27:00.517Z,996.1645
2022-10-17T08:28:00.742Z,996.2299
2022-10-17T08:29:00.961Z,996.2298
2022-10-17T08:30:00.956Z,996.0842
2022-10-17T08:31:01.099Z,996.4543
2022-10-17T08:32:02.404Z,996.524
2022-10-17T08:33:00.403Z,996.2067
2022-10-17T08:34:00.551Z,996.3227
2022-10-17T08:35:00.711Z,996.1629
2022-10-17T08:36:00.838Z,996.1264
2022-10-17T08:37:01.074Z,996.1626
2022-10-17T08:38:01.156Z,996.0387
2022-10-17T08:39:00.281Z,996.0675
2022-10-17T08:40:00.434Z,996.1763
2022-10-17T08:41:00.573Z,996.1177
2022-10-17T08:42:00.735Z,996.1174
2022-10-17T08:43:00.901Z,996.139
2022-10-17T08:44:01.032Z,996.1022
2022-10-17T08:45:01.179Z,996.1744
2022-10-17T08:46:00.319Z,996.1744
2022-10-17T08:47:00.472Z,996.1449
2022-10-17T08:48:00.632Z,996.1665
2022-10-17T08:49:00.798Z,996.2753
2022-10-17T08:50:00.913Z,996.173
2022-10-17T08:51:01.076Z,996.1579
2022-10-17T08:52:01.218Z,996.0847
2022-10-17T08:53:00.367Z,996.2881
2022-10-17T08:54:00.522Z,996.0335
2022-10-17T08:55:00.653Z,996.1421
2022-10-17T08:56:00.804Z,996.1201
2022-10-17T08:57:00.947Z,996.0688
2022-10-17T08:58:01.093Z,996.0974
2022-10-17T08:59:01.252Z,995.9805
2022-10-17T09:00:00.390Z,996.0456
2022-10-17T09:01:00.545Z,996.0381
2022-10-17T09:02:00.679Z,996.0596
2022-10-17T09:03:00.898Z,996.1323
2022-10-17T09:04:01.008Z,996.0732
2022-10-17T09:05:01.133Z,995.971
2022-10-17T09:06:00.274Z,996.0873
2022-10-17T09:07:00.434Z,996.087
2022-10-17T09:08:00.577Z,995.9264
2022-10-17T09:09:00.745Z,995.9624
2022-10-17T09:10:00.893Z,996.0351
2022-10-17T09:11:01.052Z,995.9692
2022-10-17T09:12:01.169Z,995.9473
2022-10-17T09:13:05.362Z,996.0415
2022-10-17T09:14:00.459Z,996.0336
2022-10-17T09:15:00.599Z,995.8653
2022-10-17T09:16:00.769Z,995.8929
2022-10-17T09:17:00.885Z,995.9137
2022-10-17T09:18:01.030Z,995.9278
2022-10-17T09:19:01.195Z,995.8614
2022-10-17T09:20:00.333Z,996.0062
2022-10-17T09:21:00.488Z,996.0781
2022-10-17T09:22:00.630Z,995.9379
2022-10-17T09:23:00.768Z,995.9226
2022-10-17T09:24:09.169Z,996.0461
2022-10-17T09:25:01.070Z,996.1841
2022-10-17T09:26:01.229Z,996.0437
2022-10-17T09:27:00.364Z,996.1821
2022-10-17T09:28:00.545Z,996.0929
2022-10-17T09:29:00.770Z,995.9823
2022-10-17T09:30:00.816Z,996.0104
2022-10-17T09:31:00.959Z,996.2147
2022-10-17T09:32:01.115Z,996.0675
2022-10-17T09:33:00.270Z,996.0819
2022-10-17T09:34:00.408Z,996.1258
2022-10-17T09:35:00.551Z,995.8689
2022-10-17T09:36:00.696Z,995.9049
2022-10-17T09:37:00.866Z,996.0948
2022-10-17T09:38:01.016Z,996.1383
2022-10-17T09:39:01.128Z,996.1085
2022-10-17T09:40:00.282Z,996.0644
2022-10-17T09:41:00.518Z,995.9247
2022-10-17T09:42:00.565Z,996.0347
2022-10-17T09:43:00.760Z,996.0709
2022-10-17T09:44:00.874Z,995.9901
2022-10-17T09:45:01.028Z,996.0118
2022-10-17T09:46:01.176Z,995.9381
2022-10-17T09:47:00.310Z,995.9669
2022-10-17T09:48:01.739Z,995.9292
2022-10-17T09:49:03.502Z,996.0238
2022-10-17T09:50:00.740Z,995.9865
2022-10-17T09:51:14.872Z,995.8395
2022-10-17T09:52:01.033Z,995.8103
2022-10-17T09:53:01.172Z,995.9715
2022-10-17T09:54:00.322Z,995.9277
2022-10-17T09:55:00.460Z,995.957
2022-10-17T09:56:00.634Z,995.8907
2022-10-17T09:57:00.783Z,995.9928
2022-10-17T09:58:00.915Z,996.0218
2022-10-17T09:59:01.049Z,995.9623
2022-10-17T10:00:01.317Z,995.8448
2022-10-17T10:01:00.406Z,996.0653
2022-10-17T10:02:00.513Z,995.9623
2022-10-17T10:03:00.649Z,996.0131
2022-10-17T10:04:00.792Z,996.0497
2022-10-17T10:05:05.453Z,995.91
2022-10-17T10:06:01.086Z,996.2178
2022-10-17T10:07:01.250Z,996.1141
2022-10-17T10:08:00.368Z,996.1141
2022-10-17T10:09:00.524Z,996.0477
2022-10-17T10:10:00.672Z,995.9148
2022-10-17T10:11:00.814Z,995.9732
2022-10-17T10:12:00.993Z,995.9951
2022-10-17T10:13:01.123Z,995.9951
2022-10-17T10:14:00.271Z,995.9946
2022-10-17T10:15:00.412Z,996.1341
2022-10-17T10:16:00.565Z,996.024
2022-10-17T10:17:00.742Z,996.1123
2022-10-17T10:18:00.860Z,995.9726
2022-10-17T10:19:02.756Z,996.0975
2022-10-17T10:20:01.155Z,996.1854
2022-10-17T10:21:00.289Z,996.0155
2022-10-17T10:22:00.453Z,996.1332
2022-10-17T10:23:00.589Z,996.1766
2022-10-17T10:24:00.728Z,996.0731
2022-10-17T10:25:00.880Z,996.0731
2022-10-17T10:26:01.039Z,996.1102
2022-10-17T10:27:01.178Z,996.0956
2022-10-17T10:28:01.446Z,996.1102
2022-10-17T10:29:00.728Z,996.1098
2022-10-17T10:30:00.607Z,995.911
2022-10-17T10:31:00.753Z,995.9183
2022-10-17T10:32:00.906Z,996.1465
2022-10-17T10:33:01.043Z,996.1098
2022-10-17T10:34:01.220Z,996.1465
2022-10-17T10:35:00.339Z,995.9183
2022-10-17T10:36:00.485Z,995.8957
2022-10-17T10:37:00.631Z,996.0724
2022-10-17T10:38:00.782Z,995.8372
2022-10-17T10:39:03.828Z,995.8521
2022-10-17T10:40:01.081Z,995.9622
2022-10-17T10:41:01.221Z,995.9179
2022-10-17T10:42:00.379Z,995.8666
2022-10-17T10:43:05.170Z,995.9549
2022-10-17T10:44:00.677Z,995.9255
2022-10-17T10:45:00.811Z,995.8372
2022-10-17T10:46:00.951Z,996.0873
2022-10-17T10:47:01.103Z,995.8663
2022-10-17T10:48:01.247Z,995.9469
2022-10-17T10:49:00.422Z,996.0494
2022-10-17T10:50:00.535Z,996.0564
2022-10-17T10:51:00.673Z,995.8502
2022-10-17T10:52:00.823Z,995.8207
2022-10-17T10:53:00.992Z,995.9022
2022-10-17T10:54:01.134Z,995.8215
2022-10-17T10:55:00.325Z,995.9982
2022-10-17T10:56:00.450Z,995.8946
2022-10-17T10:57:00.595Z,995.828
2022-10-17T10:58:00.758Z,995.9897
2022-10-17T10:59:00.881Z,995.997
2022-10-17T11:00:01.048Z,995.9308
2022-10-17T11:01:01.275Z,995.8502
2022-10-17T11:02:00.314Z,995.8058
2022-10-17T11:03:01.830Z,995.7909
2022-10-17T11:04:00.614Z,995.8574
2022-10-17T11:05:00.792Z,995.8648
2022-10-17T11:06:00.909Z,995.9675
2022-10-17T11:07:01.062Z,995.8648
2022-10-17T11:08:01.214Z,995.8059
2022-10-17T11:09:00.349Z,995.7908
2022-10-17T11:10:00.512Z,995.7314
2022-10-17T11:11:00.653Z,995.9527
2022-10-17T11:12:00.809Z,995.7687
2022-10-17T11:13:00.944Z,995.7908
2022-10-17T11:14:01.092Z,995.9082
2022-10-17T11:15:01.270Z,995.7314
2022-10-17T11:16:00.363Z,995.6644
2022-10-17T11:17:00.518Z,995.7452
2022-10-17T11:18:00.665Z,995.693
2022-10-17T11:19:00.812Z,995.693
2022-10-17T11:20:00.995Z,995.7004
2022-10-17T11:21:01.114Z,995.6552
2022-10-17T11:22:01.276Z,995.6258
2022-10-17T11:23:00.457Z,995.7287
2022-10-17T11:24:00.542Z,995.7727
2022-10-17T11:25:00.724Z,995.6467
2022-10-17T11:26:00.856Z,995.5671
2022-10-17T11:27:01.001Z,995.6607
2022-10-17T11:28:04.902Z,995.6978
2022-10-17T11:29:00.394Z,995.5744
2022-10-17T11:30:00.475Z,995.5671
2022-10-17T11:31:02.375Z,995.705
2022-10-17T11:32:00.742Z,995.5155
2022-10-17T11:33:00.871Z,995.6017
2022-10-17T11:34:01.024Z,995.5227
2022-10-17T11:35:01.168Z,995.5227
2022-10-17T11:36:00.302Z,995.6312
2022-10-17T11:37:00.511Z,995.5376
2022-10-17T11:38:00.605Z,995.5081
2022-10-17T11:39:00.756Z,995.5372
2022-10-17T11:40:00.922Z,995.5744
2022-10-17T11:41:01.045Z,995.3675
2022-10-17T11:42:03.370Z,995.4701
2022-10-17T11:43:00.343Z,995.3966
2022-10-17T11:44:00.500Z,995.4628
2022-10-17T11:45:00.633Z,995.4256
2022-10-17T11:46:00.788Z,995.718
2022-10-17T11:47:00.951Z,995.3667
2022-10-17T11:48:01.083Z,995.6077
2022-10-17T11:49:01.235Z,995.4029
2022-10-17T11:51:59.716Z,995.4471